createdAt,value
2023-05-15T00:01:38.128Z,9.00
2023-05-15T00:04:20.974Z,6.90
2023-05-15T00:07:03.961Z,7.10
2023-05-15T00:09:46.944Z,6.60
2023-05-15T00:12:29.710Z,6.60
2023-05-15T00:15:12.990Z,6.30
2023-05-15T00:17:56.080Z,6.70
2023-05-15T00:20:38.992Z,9.70
2023-05-15T00:23:21.842Z,7.50
2023-05-15T00:26:04.759Z,9.60
2023-05-15T00:28:47.582Z,8.10
2023-05-15T00:31:30.414Z,10.30
2023-05-15T00:34:14.671Z,8.90
2023-05-15T00:36:57.769Z,7.20
2023-05-15T00:39:40.603Z,8.40
2023-05-15T00:42:24.923Z,7.60
2023-05-15T00:45:12.960Z,6.80
2023-05-15T00:47:57.779Z,9.20
2023-05-15T00:50:42.092Z,11.80
2023-05-15T00:53:26.879Z,7.80
2023-05-15T00:56:12.443Z,8.40
2023-05-15T00:58:56.130Z,10.10
2023-05-15T01:01:45.297Z,8.30
2023-05-15T01:05:29.386Z,8.10
2023-05-15T01:08:53.165Z,6.70
2023-05-15T01:12:06.831Z,6.50
2023-05-15T01:14:59.441Z,11.30
2023-05-15T01:18:34.239Z,10.50
2023-05-15T01:22:22.647Z,8.00
2023-05-15T01:25:55.416Z,9.70
2023-05-15T01:29:20.860Z,9.10
2023-05-15T01:32:21.358Z,10.20
2023-05-15T01:35:51.815Z,11.70
2023-05-15T01:39:13.106Z,11.60
2023-05-15T01:42:22.721Z,13.80
2023-05-15T01:45:32.849Z,10.10
2023-05-15T01:48:41.473Z,11.00
2023-05-15T01:51:29.588Z,12.00
2023-05-15T01:54:35.101Z,11.30
2023-05-15T01:57:34.947Z,10.20
2023-05-15T02:00:42.760Z,12.70
2023-05-15T02:04:17.625Z,16.70
2023-05-15T02:07:29.825Z,17.00
2023-05-15T02:10:34.604Z,16.80
2023-05-15T02:14:01.240Z,16.20
2023-05-15T02:16:52.941Z,16.50
2023-05-15T02:19:41.707Z,13.60
2023-05-15T02:22:45.097Z,11.40
2023-05-15T02:26:18.025Z,12.30
2023-05-15T02:29:12.532Z,13.00
2023-05-15T02:32:45.854Z,11.60
2023-05-15T02:36:33.991Z,9.10
2023-05-15T02:39:59.830Z,11.20
2023-05-15T02:43:04.988Z,12.90
2023-05-15T02:46:34.808Z,10.40
2023-05-15T02:50:38.675Z,11.60
2023-05-15T02:53:45.278Z,13.30
2023-05-15T02:57:37.552Z,14.70
2023-05-15T03:01:13.913Z,12.60
2023-05-15T03:04:20.173Z,12.40
2023-05-15T03:07:41.192Z,14.70
2023-05-15T03:11:19.364Z,15.00
2023-05-15T03:14:46.184Z,13.50
2023-05-15T03:21:18.735Z,14.70
2023-05-15T03:24:50.279Z,14.80
2023-05-15T03:28:15.952Z,12.40
2023-05-15T03:32:19.921Z,13.20
2023-05-15T03:35:44.773Z,14.10
2023-05-15T03:39:28.628Z,16.10
2023-05-15T03:42:32.588Z,14.00
2023-05-15T03:45:58.275Z,17.00
2023-05-15T03:49:27.375Z,16.70
2023-05-15T03:53:21.089Z,16.10
2023-05-15T03:57:14.763Z,17.60
2023-05-15T04:00:53.444Z,19.00
2023-05-15T04:04:44.649Z,20.30
2023-05-15T04:08:19.886Z,17.40
2023-05-15T04:11:56.722Z,18.40
2023-05-15T04:15:56.437Z,22.30
2023-05-15T04:20:00.344Z,19.30
2023-05-15T04:23:27.289Z,19.10
2023-05-15T04:27:21.339Z,16.80
2023-05-15T04:31:05.415Z,22.80
2023-05-15T04:34:49.286Z,17.50
2023-05-15T04:38:22.935Z,20.70
2023-05-15T04:42:06.698Z,17.70
2023-05-15T04:45:59.948Z,20.10
2023-05-15T04:49:27.259Z,20.60
2023-05-15T04:53:29.997Z,19.50
2023-05-15T04:57:22.270Z,20.90
2023-05-15T05:00:23.286Z,19.50
2023-05-15T05:03:53.096Z,26.80
2023-05-15T05:06:59.638Z,23.00
2023-05-15T05:10:53.164Z,23.80
2023-05-15T05:14:50.542Z,20.00
2023-05-15T05:18:36.245Z,20.50
2023-05-15T05:22:38.900Z,21.80
2023-05-15T05:26:24.103Z,24.80
2023-05-15T05:30:00.527Z,20.00
2023-05-15T05:33:16.703Z,23.40
2023-05-15T05:36:39.827Z,22.10
2023-05-15T05:40:42.302Z,20.30
2023-05-15T05:44:34.898Z,21.60
2023-05-15T05:48:20.431Z,21.70
2023-05-15T05:51:47.210Z,21.20
2023-05-15T05:54:51.889Z,21.40
2023-05-15T05:58:48.322Z,21.60
2023-05-15T06:02:32.164Z,20.80
2023-05-15T06:06:15.897Z,24.90
2023-05-15T06:09:51.342Z,25.20
2023-05-15T06:13:21.819Z,23.00
2023-05-15T06:16:38.115Z,21.30
2023-05-15T06:20:27.551Z,22.20
2023-05-15T06:23:57.975Z,23.10
2023-05-15T06:28:01.875Z,20.00
2023-05-15T06:31:19.176Z,20.10
2023-05-15T06:35:02.014Z,25.20
2023-05-15T06:38:24.539Z,25.00
2023-05-15T06:41:33.329Z,21.70
2023-05-15T06:45:02.589Z,24.70
2023-05-15T06:48:51.603Z,23.90
2023-05-15T06:52:24.170Z,19.50
2023-05-15T06:56:13.685Z,20.50
2023-05-15T07:00:07.485Z,20.00
2023-05-15T07:07:37.881Z,18.40
2023-05-15T07:11:10.834Z,18.90
2023-05-15T07:15:04.709Z,19.00
2023-05-15T07:18:10.994Z,19.70
2023-05-15T07:21:36.108Z,19.50
2023-05-15T07:25:32.782Z,18.10
2023-05-15T07:29:04.388Z,17.50
2023-05-15T07:32:48.453Z,20.60
2023-05-15T07:39:37.972Z,18.70
2023-05-15T07:43:13.271Z,19.70
2023-05-15T07:46:50.753Z,19.10
2023-05-15T07:50:16.909Z,20.00
2023-05-15T07:54:10.782Z,27.20
2023-05-15T08:01:28.703Z,22.80
2023-05-15T08:05:03.653Z,22.50
2023-05-15T08:08:41.617Z,23.20
2023-05-15T08:12:32.564Z,22.00
2023-05-15T08:16:19.190Z,25.00
2023-05-15T08:19:52.933Z,22.90
2023-05-15T08:23:39.152Z,22.00
2023-05-15T08:27:26.642Z,22.70
2023-05-15T08:31:02.563Z,23.50
2023-05-15T08:34:36.695Z,22.40
2023-05-15T08:38:31.502Z,20.30
2023-05-15T08:42:41.260Z,19.30
2023-05-15T08:46:15.956Z,22.70
2023-05-15T08:50:22.611Z,19.10
2023-05-15T08:54:26.460Z,20.30
2023-05-15T08:58:08.065Z,22.00
2023-05-15T09:02:12.079Z,18.20
2023-05-15T09:05:56.017Z,19.50
2023-05-15T09:09:47.660Z,21.00
2023-05-15T09:13:33.317Z,20.70
2023-05-15T09:17:37.192Z,18.80
2023-05-15T09:21:13.359Z,22.70
2023-05-15T09:25:15.866Z,22.50
2023-05-15T09:29:01.962Z,21.50
2023-05-15T09:32:47.427Z,22.20
2023-05-15T09:36:51.261Z,22.20
2023-05-15T09:40:24.118Z,21.80
2023-05-15T09:47:40.261Z,26.20
2023-05-15T09:50:43.932Z,22.90
2023-05-15T09:54:23.998Z,19.70
2023-05-15T09:57:42.293Z,21.10
2023-05-15T10:01:22.945Z,21.90
2023-05-15T10:04:54.684Z,19.80
2023-05-15T10:07:54.437Z,22.10
2023-05-15T10:10:56.175Z,22.90
2023-05-15T10:14:22.085Z,22.10
2023-05-15T10:17:36.889Z,23.00
2023-05-15T10:20:35.652Z,22.90
2023-05-15T10:23:46.182Z,24.10
2023-05-15T10:26:42.898Z,20.50
2023-05-15T10:29:53.059Z,21.50
2023-05-15T10:33:03.586Z,20.20
2023-05-15T10:36:20.788Z,19.40
2023-05-15T10:39:56.807Z,22.70
2023-05-15T10:43:23.684Z,21.40
2023-05-15T10:46:47.707Z,19.60
2023-05-15T10:50:51.747Z,21.20
2023-05-15T10:54:15.767Z,21.40
2023-05-15T10:57:39.483Z,19.40
2023-05-15T11:01:06.354Z,19.40
2023-05-15T11:04:12.416Z,21.30
2023-05-15T11:07:37.251Z,19.10
2023-05-15T11:11:11.833Z,20.50
2023-05-15T11:14:47.033Z,18.90
2023-05-15T11:17:58.512Z,22.10
2023-05-15T11:21:19.273Z,20.40
2023-05-15T11:25:12.490Z,19.80
2023-05-15T11:28:40.966Z,24.00
2023-05-15T11:31:58.563Z,18.80
2023-05-15T11:35:50.596Z,19.20
2023-05-15T11:39:17.243Z,19.20
2023-05-15T11:42:44.771Z,19.40
2023-05-15T11:46:17.763Z,19.80
2023-05-15T11:49:21.336Z,17.60
2023-05-15T11:52:10.184Z,19.80
2023-05-15T11:55:23.756Z,19.30
2023-05-15T11:58:42.776Z,18.50
2023-05-15T12:01:59.139Z,18.80
2023-05-15T12:05:22.550Z,21.50
2023-05-15T12:08:51.217Z,19.20
2023-05-15T12:11:50.397Z,20.50
2023-05-15T12:14:59.915Z,19.90
2023-05-15T12:18:22.816Z,20.50
2023-05-15T12:21:46.564Z,19.50
2023-05-15T12:25:13.306Z,19.30
2023-05-15T12:28:55.870Z,22.30
2023-05-15T12:32:54.284Z,23.30
2023-05-15T12:36:31.692Z,20.90
2023-05-15T12:40:12.260Z,21.30
2023-05-15T12:43:29.301Z,20.80
2023-05-15T12:47:13.821Z,21.50
2023-05-15T12:50:47.339Z,21.20
2023-05-15T12:57:23.680Z,20.80
2023-05-15T13:00:32.131Z,23.40
2023-05-15T13:04:18.284Z,24.30
2023-05-15T13:07:44.484Z,21.60
2023-05-15T13:10:43.307Z,23.00
2023-05-15T13:14:29.107Z,22.00
2023-05-15T13:17:50.019Z,21.50
2023-05-15T13:24:10.006Z,20.10
2023-05-15T13:27:41.678Z,21.90
2023-05-15T13:31:27.105Z,25.00
2023-05-15T13:34:44.334Z,24.90
2023-05-15T13:37:55.582Z,21.10
2023-05-15T13:41:35.439Z,21.30
2023-05-15T13:44:45.099Z,22.80
2023-05-15T13:47:47.975Z,22.10
2023-05-15T13:51:22.685Z,20.20
2023-05-15T13:54:39.783Z,20.70
2023-05-15T13:57:43.791Z,23.50
2023-05-15T14:01:10.313Z,21.90
2023-05-15T14:04:18.728Z,23.70
2023-05-15T14:08:20.579Z,21.30
2023-05-15T14:11:42.747Z,21.40
2023-05-15T14:15:30.933Z,22.80
2023-05-15T14:19:24.791Z,21.80
2023-05-15T14:23:17.734Z,20.10
2023-05-15T14:26:32.025Z,23.40
2023-05-15T14:30:19.947Z,23.00
2023-05-15T14:34:14.852Z,22.70
2023-05-15T14:41:02.350Z,21.40
2023-05-15T14:44:55.925Z,21.70
2023-05-15T14:51:28.917Z,20.60
2023-05-15T14:55:21.335Z,22.00
2023-05-15T14:59:25.265Z,18.60
2023-05-15T15:03:02.596Z,20.40
2023-05-15T15:06:09.558Z,20.60
2023-05-15T15:09:22.116Z,22.60
2023-05-15T15:12:38.119Z,19.60
2023-05-15T15:16:09.638Z,22.30
2023-05-15T15:19:49.743Z,24.40
2023-05-15T15:23:46.488Z,23.10
2023-05-15T15:31:23.351Z,21.90
2023-05-15T15:35:27.165Z,23.10
2023-05-15T15:38:52.155Z,23.10
2023-05-15T15:42:25.156Z,22.30
2023-05-15T15:45:57.862Z,22.70
2023-05-15T15:49:32.556Z,26.20
2023-05-15T15:52:38.332Z,21.90
2023-05-15T15:56:01.733Z,20.30
2023-05-15T15:58:59.368Z,18.90
2023-05-15T16:02:44.941Z,19.10
2023-05-15T16:06:27.571Z,20.00
2023-05-15T16:10:13.420Z,19.50
2023-05-15T16:13:57.472Z,17.60
2023-05-15T16:17:55.037Z,22.00
2023-05-15T16:21:28.968Z,16.80
2023-05-15T16:24:48.685Z,16.10
2023-05-15T16:28:26.339Z,32.50
2023-05-15T16:31:30.289Z,27.40
2023-05-15T16:34:35.758Z,22.20
2023-05-15T16:37:50.571Z,23.10
2023-05-15T16:40:53.804Z,24.40
2023-05-15T16:44:47.381Z,28.50
2023-05-15T16:48:32.868Z,26.00
2023-05-15T16:52:07.557Z,26.00
2023-05-15T16:55:42.080Z,23.60
2023-05-15T16:59:08.934Z,24.00
2023-05-15T17:02:52.800Z,26.60
2023-05-15T17:05:53.316Z,24.10
2023-05-15T17:09:40.677Z,27.80
2023-05-15T17:13:27.804Z,24.80
2023-05-15T17:16:32.721Z,26.00
2023-05-15T17:20:05.960Z,22.90
2023-05-15T17:23:58.588Z,21.60
2023-05-15T17:27:41.647Z,21.40
2023-05-15T17:31:18.882Z,22.80
2023-05-15T17:35:15.724Z,26.20
2023-05-15T17:39:02.478Z,25.10
2023-05-15T17:42:22.050Z,25.10
2023-05-15T17:46:08.757Z,25.80
2023-05-15T17:49:34.457Z,26.80
2023-05-15T17:53:20.173Z,32.70
2023-05-15T17:57:04.753Z,32.00
2023-05-15T18:00:29.192Z,24.40
2023-05-15T18:04:23.148Z,24.70
2023-05-15T18:08:08.475Z,24.00
2023-05-15T18:12:02.193Z,24.00
2023-05-15T18:15:28.827Z,19.20
2023-05-15T18:18:49.231Z,17.50
2023-05-15T18:22:06.423Z,16.70
2023-05-15T18:26:10.504Z,16.40
2023-05-15T18:29:36.255Z,16.70
2023-05-15T18:32:52.321Z,17.30
2023-05-15T18:36:07.397Z,15.90
2023-05-15T18:38:54.285Z,16.10
2023-05-15T18:42:21.305Z,14.90
2023-05-15T18:45:41.393Z,15.50
2023-05-15T18:48:46.507Z,18.10
2023-05-15T18:51:50.072Z,17.50
2023-05-15T18:55:18.102Z,20.30
2023-05-15T18:58:57.147Z,21.40
2023-05-15T19:02:51.996Z,20.70
2023-05-15T19:06:22.204Z,18.30
2023-05-15T19:10:04.619Z,19.50
2023-05-15T19:13:50.700Z,18.10
2023-05-15T19:17:20.173Z,22.30
2023-05-15T19:20:56.725Z,23.60
2023-05-15T19:24:30.859Z,22.20
2023-05-15T19:28:36.719Z,18.70
2023-05-15T19:35:09.839Z,18.70
2023-05-15T19:39:12.479Z,20.30
2023-05-15T19:42:56.134Z,20.20
2023-05-15T19:46:47.574Z,23.50
2023-05-15T19:50:24.289Z,19.30
2023-05-15T19:53:58.935Z,17.60
2023-05-15T19:57:34.070Z,15.30
2023-05-15T20:00:32.907Z,18.50
2023-05-15T20:03:56.345Z,18.80
2023-05-15T20:07:48.360Z,18.00
2023-05-15T20:11:32.031Z,19.00
2023-05-15T20:15:08.186Z,17.80
2023-05-15T20:19:02.247Z,18.30
2023-05-15T20:22:11.444Z,17.90
2023-05-15T20:25:45.078Z,17.80
2023-05-15T20:29:14.236Z,19.40
2023-05-15T20:32:47.511Z,15.30
2023-05-15T20:36:09.751Z,17.50
2023-05-15T20:39:07.173Z,16.80
2023-05-15T20:41:56.938Z,16.00
2023-05-15T20:44:50.810Z,16.90
2023-05-15T20:48:34.815Z,15.90
2023-05-15T20:52:00.496Z,17.70
2023-05-15T20:55:21.088Z,16.40
2023-05-15T20:58:59.760Z,16.40
2023-05-15T21:02:17.047Z,17.50
2023-05-15T21:05:32.715Z,18.10
2023-05-15T21:09:15.590Z,15.60
2023-05-15T21:12:35.235Z,17.40
2023-05-15T21:16:19.189Z,17.80
2023-05-15T21:19:49.302Z,18.90
2023-05-15T21:27:01.946Z,16.30
2023-05-15T21:30:59.923Z,18.20
2023-05-15T21:34:25.942Z,16.80
2023-05-15T21:38:20.852Z,26.30
2023-05-15T21:42:01.562Z,17.10
2023-05-15T21:45:26.095Z,15.60
2023-05-15T21:48:49.633Z,18.20
2023-05-15T21:55:39.886Z,17.20
2023-05-15T21:58:56.169Z,16.70
2023-05-15T22:02:07.948Z,14.60
2023-05-15T22:05:16.944Z,15.10
2023-05-15T22:09:00.771Z,16.70
2023-05-15T22:12:26.702Z,18.40
2023-05-15T22:15:43.089Z,18.70
2023-05-15T22:19:05.364Z,17.30
2023-05-15T22:23:01.979Z,17.00
2023-05-15T22:26:20.622Z,17.20
2023-05-15T22:29:47.505Z,18.30
2023-05-15T22:33:02.982Z,16.40
2023-05-15T22:36:35.019Z,16.40
2023-05-15T22:40:04.353Z,19.00
2023-05-15T22:43:08.635Z,13.70
2023-05-15T22:46:52.343Z,17.50
2023-05-15T22:49:41.219Z,18.60
2023-05-15T22:53:08.627Z,15.90
2023-05-15T22:56:48.914Z,19.50
2023-05-15T23:00:37.046Z,17.00
2023-05-15T23:04:19.797Z,15.20
2023-05-15T23:07:46.139Z,19.60
2023-05-15T23:11:07.937Z,18.30
2023-05-15T23:14:31.980Z,17.80
2023-05-15T23:18:06.689Z,20.60
2023-05-15T23:21:32.819Z,18.10
2023-05-15T23:28:25.838Z,19.80
2023-05-15T23:31:45.519Z,18.70
2023-05-15T23:35:28.272Z,25.10
2023-05-15T23:38:38.331Z,20.30
2023-05-15T23:42:13.823Z,20.30
2023-05-15T23:45:34.797Z,19.90
2023-05-15T23:48:49.671Z,21.20
2023-05-15T23:52:26.182Z,18.90
2023-05-15T23:56:20.291Z,18.50
2023-05-15T23:59:54.099Z,20.80
